Milburn, KY (42070)

7:02 AM CDT on May 30, 2017 (GMT -0500)
Reddick Farms | | Change Station
Active Advisory: Flood Warning

Elev 400 ft 36.83 °N, 88.92 °W | Updated 10 minutes ago

Clear
Clear
68.4 °F
Feels Like 68.4 °F
N
1.0
Wind Variable Wind from ESE
Gusts 4.0 mph

Today
High -- | Low -- °F
--% Chance of Precip.
Yesterday
High -- | Low -- °F
Precip. -- in
Pressure 30.07 in
Visibility 10.0 miles
Clouds Overcast 10000 ft
Dew Point 61 °F
Humidity 78%
Rainfall 0.00 in
Snow Depth Not available.
5:38 AM 8:08 PM
Waxing Crescent, 29% visible
METAR KM25 301215Z AUTO 00000KT 10SM OVC100 18/16 A3007 RMK AO2 PWINO
Pressure 30.07 in
Visibility 10.0 miles
Clouds Overcast 10000 ft
Dew Point 61 °F
Humidity 78%
Rainfall 0.00 in
Snow Depth Not available.
5:38 AM 8:08 PM
Waxing Crescent, 29% visible
METAR KM25 301215Z AUTO 00000KT 10SM OVC100 18/16 A3007 RMK AO2 PWINO

Get Your Daily Forecast Email!

Thanks for signing up!

Be on the lookout for a verification email in your inbox.

You'll start receiving severe weather alerts in your inbox..

×

10-Day Weather Forecast

Almanac

Astronomy

May. 30, 2017 Rise Set
Actual Time
Civil Twilight
Nautical Twilight
Astronomical Twilight
Moon
Length of Visible Light
Length of Day
Tomorrow will be .
, % of the Moon is Illuminated

Today's Extremes

State Highs State Lows

Community

WunderPhotos

Category 6

Welcome to Category 6. This is the collective home for Weather Underground's featured writeups by Dr. Jeff Masters (right), Bob Henson (left), Chris Burt, and other regular contributors.

Nearby

Air Quality

  Air Quality AQ Index Pollutant
Not available.

Snow Depth

Station Depth Elevation

Earthquake Activity

City Distance Mag. Time & Date
Minimum magnitude displayed is 2.5.

Coastal Water Temperatures

Place Temperature

Stations

Nearby Weather Stations

Station Location Temp. Windchill Dew Point Humidity Wind Precip. Elev Updated Type
                   

Watches & Warnings

Flood Warning
Issued: 8:01 PM CDT May. 29, 2017 – National Weather Service

The Flood Warning continues for
the Ohio River at Cairo
* until Tuesday June 06.
* At 7:00 PM Monday the stage was 42.0 feet.
* Flood stage is 40.0 feet.
* Minor flooding is occurring and minor flooding is forecast.
* Forecast... the river will continue rising to near 43.0 feet by
Friday morning. The river will fall below flood stage Tuesday
morning June 6th.


Lat... Lon 3709 8946 3717 8916 3709 8907 3680 8900
      3651 8918